<?xml version="1.0" encoding="UTF-8"?>
<gpx xmlns="http://www.topografix.com/GPX/1/1" xmlns:xsi="http://www.w3.org/2001/XMLSchema-instance" version="1.1" xsi:schemaLocation="http://www.topografix.com/GPX/1/1 http://www.topografix.com/GPX/1/1/gpx.xsd">
  <metadata>
    <name>Carsington Triathlon</name>
  </metadata>
  <trk>
    <name>Carsington Triathlon</name>
    <trkseg>
      <trkpt lat="53.060917" lon="-1.645121">
        <ele>213.7483</ele>
        <time>2025-07-13T07:09:00.000Z</time>
      </trkpt>
      <trkpt lat="53.060716" lon="-1.644833">
        <ele>213.748302</ele>
        <time>2025-07-13T07:09:03.000Z</time>
      </trkpt>
      <trkpt lat="53.060268" lon="-1.644386">
        <ele>213.748313</ele>
        <time>2025-07-13T07:09:09.000Z</time>
      </trkpt>
      <trkpt lat="53.059881" lon="-1.644144">
        <ele>212.741405</ele>
        <time>2025-07-13T07:09:14.000Z</time>
      </trkpt>
      <trkpt lat="53.059425" lon="-1.64396">
        <ele>211.126465</ele>
        <time>2025-07-13T07:09:19.000Z</time>
      </trkpt>
      <trkpt lat="53.059094" lon="-1.643906">
        <ele>209.988515</ele>
        <time>2025-07-13T07:09:23.000Z</time>
      </trkpt>
      <trkpt lat="53.058641" lon="-1.643947">
        <ele>208.465881</ele>
        <time>2025-07-13T07:09:28.000Z</time>
      </trkpt>
      <trkpt lat="53.057213" lon="-1.644469">
        <ele>205.133036</ele>
        <time>2025-07-13T07:09:44.000Z</time>
      </trkpt>
      <trkpt lat="53.056812" lon="-1.644479">
        <ele>204.289742</ele>
        <time>2025-07-13T07:09:48.000Z</time>
      </trkpt>
      <trkpt lat="53.056461" lon="-1.64437">
        <ele>203.473338</ele>
        <time>2025-07-13T07:09:52.000Z</time>
      </trkpt>
      <trkpt lat="53.056234" lon="-1.644293">
        <ele>202.894274</ele>
        <time>2025-07-13T07:09:55.000Z</time>
      </trkpt>
      <trkpt lat="53.055964" lon="-1.644102">
        <ele>202.171026</ele>
        <time>2025-07-13T07:09:58.000Z</time>
      </trkpt>
      <trkpt lat="53.055732" lon="-1.64388">
        <ele>201.472356</ele>
        <time>2025-07-13T07:10:01.000Z</time>
      </trkpt>
      <trkpt lat="53.055393" lon="-1.643438">
        <ele>200.387419</ele>
        <time>2025-07-13T07:10:06.000Z</time>
      </trkpt>
      <trkpt lat="53.055095" lon="-1.642895">
        <ele>199.320629</ele>
        <time>2025-07-13T07:10:11.000Z</time>
      </trkpt>
      <trkpt lat="53.054594" lon="-1.641611">
        <ele>197.496784</ele>
        <time>2025-07-13T07:10:21.000Z</time>
      </trkpt>
      <trkpt lat="53.054296" lon="-1.640973">
        <ele>196.519773</ele>
        <time>2025-07-13T07:10:26.000Z</time>
      </trkpt>
      <trkpt lat="53.054039" lon="-1.640557">
        <ele>195.821202</ele>
        <time>2025-07-13T07:10:30.000Z</time>
      </trkpt>
      <trkpt lat="53.053786" lon="-1.640195">
        <ele>195.491173</ele>
        <time>2025-07-13T07:10:34.000Z</time>
      </trkpt>
      <trkpt lat="53.053294" lon="-1.639633">
        <ele>194.874781</ele>
        <time>2025-07-13T07:10:41.000Z</time>
      </trkpt>
      <trkpt lat="53.052911" lon="-1.639303">
        <ele>194.440621</ele>
        <time>2025-07-13T07:10:46.000Z</time>
      </trkpt>
      <trkpt lat="53.052665" lon="-1.639137">
        <ele>194.183933</ele>
        <time>2025-07-13T07:10:49.000Z</time>
      </trkpt>
      <trkpt lat="53.047484" lon="-1.635808">
        <ele>199.14647</ele>
        <time>2025-07-13T07:11:51.000Z</time>
      </trkpt>
      <trkpt lat="53.046948" lon="-1.635339">
        <ele>201.423595</ele>
        <time>2025-07-13T07:11:58.000Z</time>
      </trkpt>
      <trkpt lat="53.046703" lon="-1.635094">
        <ele>202.444271</ele>
        <time>2025-07-13T07:12:01.000Z</time>
      </trkpt>
      <trkpt lat="53.046279" lon="-1.634558">
        <ele>204.447447</ele>
        <time>2025-07-13T07:12:07.000Z</time>
      </trkpt>
      <trkpt lat="53.045964" lon="-1.634198">
        <ele>205.913088</ele>
        <time>2025-07-13T07:12:11.000Z</time>
      </trkpt>
      <trkpt lat="53.045703" lon="-1.633977">
        <ele>206.798434</ele>
        <time>2025-07-13T07:12:14.000Z</time>
      </trkpt>
      <trkpt lat="53.045199" lon="-1.633623">
        <ele>208.4793</ele>
        <time>2025-07-13T07:12:20.000Z</time>
      </trkpt>
      <trkpt lat="53.044828" lon="-1.633314">
        <ele>209.705829</ele>
        <time>2025-07-13T07:12:25.000Z</time>
      </trkpt>
      <trkpt lat="53.044427" lon="-1.632913">
        <ele>211.131861</ele>
        <time>2025-07-13T07:12:30.000Z</time>
      </trkpt>
      <trkpt lat="53.043852" lon="-1.632226">
        <ele>210.156661</ele>
        <time>2025-07-13T07:12:38.000Z</time>
      </trkpt>
      <trkpt lat="53.042792" lon="-1.630981">
        <ele>207.557601</ele>
        <time>2025-07-13T07:12:52.000Z</time>
      </trkpt>
      <trkpt lat="53.042576" lon="-1.630723">
        <ele>206.826262</ele>
        <time>2025-07-13T07:12:55.000Z</time>
      </trkpt>
      <trkpt lat="53.042206" lon="-1.630283">
        <ele>205.507415</ele>
        <time>2025-07-13T07:13:00.000Z</time>
      </trkpt>
      <trkpt lat="53.041902" lon="-1.629934">
        <ele>204.466244</ele>
        <time>2025-07-13T07:13:04.000Z</time>
      </trkpt>
      <trkpt lat="53.04095" lon="-1.628841">
        <ele>203.018254</ele>
        <time>2025-07-13T07:13:17.000Z</time>
      </trkpt>
      <trkpt lat="53.040681" lon="-1.628599">
        <ele>203.099585</ele>
        <time>2025-07-13T07:13:20.000Z</time>
      </trkpt>
      <trkpt lat="53.040404" lon="-1.628418">
        <ele>203.180655</ele>
        <time>2025-07-13T07:13:23.000Z</time>
      </trkpt>
      <trkpt lat="53.040002" lon="-1.628311">
        <ele>203.286892</ele>
        <time>2025-07-13T07:13:28.000Z</time>
      </trkpt>
      <trkpt lat="53.039673" lon="-1.628267">
        <ele>203.652166</ele>
        <time>2025-07-13T07:13:32.000Z</time>
      </trkpt>
      <trkpt lat="53.039057" lon="-1.628435">
        <ele>205.073853</ele>
        <time>2025-07-13T07:13:39.000Z</time>
      </trkpt>
      <trkpt lat="53.038618" lon="-1.628687">
        <ele>206.140458</ele>
        <time>2025-07-13T07:13:44.000Z</time>
      </trkpt>
      <trkpt lat="53.038261" lon="-1.62906">
        <ele>207.141032</ele>
        <time>2025-07-13T07:13:49.000Z</time>
      </trkpt>
      <trkpt lat="53.036745" lon="-1.631118">
        <ele>214.424302</ele>
        <time>2025-07-13T07:14:11.000Z</time>
      </trkpt>
      <trkpt lat="53.035608" lon="-1.632919">
        <ele>222.736724</ele>
        <time>2025-07-13T07:14:28.000Z</time>
      </trkpt>
      <trkpt lat="53.035583" lon="-1.63296">
        <ele>222.883099</ele>
        <time>2025-07-13T07:14:28.000Z</time>
      </trkpt>
      <trkpt lat="53.035486" lon="-1.633069">
        <ele>223.472918</ele>
        <time>2025-07-13T07:14:29.000Z</time>
      </trkpt>
      <trkpt lat="53.034951" lon="-1.633718">
        <ele>226.160779</ele>
        <time>2025-07-13T07:14:36.000Z</time>
      </trkpt>
      <trkpt lat="53.033385" lon="-1.635427">
        <ele>230.928594</ele>
        <time>2025-07-13T07:14:57.000Z</time>
      </trkpt>
      <trkpt lat="53.033173" lon="-1.635673">
        <ele>230.946725</ele>
        <time>2025-07-13T07:15:00.000Z</time>
      </trkpt>
      <trkpt lat="53.033175" lon="-1.635673">
        <ele>230.947065</ele>
        <time>2025-07-13T07:15:00.000Z</time>
      </trkpt>
      <trkpt lat="53.033183" lon="-1.635676">
        <ele>230.947427</ele>
        <time>2025-07-13T07:15:00.000Z</time>
      </trkpt>
      <trkpt lat="53.033382" lon="-1.635416">
        <ele>230.965539</ele>
        <time>2025-07-13T07:15:03.000Z</time>
      </trkpt>
      <trkpt lat="53.034953" lon="-1.633719">
        <ele>226.182216</ele>
        <time>2025-07-13T07:15:24.000Z</time>
      </trkpt>
      <trkpt lat="53.035482" lon="-1.633067">
        <ele>223.459785</ele>
        <time>2025-07-13T07:15:31.000Z</time>
      </trkpt>
      <trkpt lat="53.035579" lon="-1.632951">
        <ele>222.86897</ele>
        <time>2025-07-13T07:15:32.000Z</time>
      </trkpt>
      <trkpt lat="53.035601" lon="-1.632923">
        <ele>222.722342</ele>
        <time>2025-07-13T07:15:32.000Z</time>
      </trkpt>
      <trkpt lat="53.036742" lon="-1.63113">
        <ele>214.452875</ele>
        <time>2025-07-13T07:15:49.000Z</time>
      </trkpt>
      <trkpt lat="53.038253" lon="-1.629062">
        <ele>207.171636</ele>
        <time>2025-07-13T07:16:11.000Z</time>
      </trkpt>
      <trkpt lat="53.038626" lon="-1.628683">
        <ele>206.155034</ele>
        <time>2025-07-13T07:16:16.000Z</time>
      </trkpt>
      <trkpt lat="53.03906" lon="-1.628444">
        <ele>205.071353</ele>
        <time>2025-07-13T07:16:21.000Z</time>
      </trkpt>
      <trkpt lat="53.039675" lon="-1.628277">
        <ele>203.626869</ele>
        <time>2025-07-13T07:16:28.000Z</time>
      </trkpt>
      <trkpt lat="53.040006" lon="-1.628294">
        <ele>203.332733</ele>
        <time>2025-07-13T07:16:32.000Z</time>
      </trkpt>
      <trkpt lat="53.040396" lon="-1.62843">
        <ele>203.194849</ele>
        <time>2025-07-13T07:16:36.000Z</time>
      </trkpt>
      <trkpt lat="53.040693" lon="-1.628615">
        <ele>203.089653</ele>
        <time>2025-07-13T07:16:40.000Z</time>
      </trkpt>
      <trkpt lat="53.040961" lon="-1.628851">
        <ele>202.984095</ele>
        <time>2025-07-13T07:16:43.000Z</time>
      </trkpt>
      <trkpt lat="53.041898" lon="-1.629932">
        <ele>204.498619</ele>
        <time>2025-07-13T07:16:56.000Z</time>
      </trkpt>
      <trkpt lat="53.042194" lon="-1.63028">
        <ele>205.519012</ele>
        <time>2025-07-13T07:17:00.000Z</time>
      </trkpt>
      <trkpt lat="53.042572" lon="-1.630725">
        <ele>206.811551</ele>
        <time>2025-07-13T07:17:05.000Z</time>
      </trkpt>
      <trkpt lat="53.042787" lon="-1.630963">
        <ele>207.528281</ele>
        <time>2025-07-13T07:17:08.000Z</time>
      </trkpt>
      <trkpt lat="53.043854" lon="-1.632234">
        <ele>210.214259</ele>
        <time>2025-07-13T07:17:23.000Z</time>
      </trkpt>
      <trkpt lat="53.044434" lon="-1.632905">
        <ele>211.040071</ele>
        <time>2025-07-13T07:17:31.000Z</time>
      </trkpt>
      <trkpt lat="53.044841" lon="-1.633315">
        <ele>209.653603</ele>
        <time>2025-07-13T07:17:36.000Z</time>
      </trkpt>
      <trkpt lat="53.045193" lon="-1.633623">
        <ele>208.461126</ele>
        <time>2025-07-13T07:17:40.000Z</time>
      </trkpt>
      <trkpt lat="53.045702" lon="-1.633984">
        <ele>206.826907</ele>
        <time>2025-07-13T07:17:46.000Z</time>
      </trkpt>
      <trkpt lat="53.045962" lon="-1.634214">
        <ele>205.94304</ele>
        <time>2025-07-13T07:17:49.000Z</time>
      </trkpt>
      <trkpt lat="53.046279" lon="-1.63455">
        <ele>204.44715</ele>
        <time>2025-07-13T07:17:53.000Z</time>
      </trkpt>
      <trkpt lat="53.046703" lon="-1.635106">
        <ele>202.420094</ele>
        <time>2025-07-13T07:17:59.000Z</time>
      </trkpt>
      <trkpt lat="53.046944" lon="-1.635352">
        <ele>201.387265</ele>
        <time>2025-07-13T07:18:02.000Z</time>
      </trkpt>
      <trkpt lat="53.047482" lon="-1.635818">
        <ele>199.185691</ele>
        <time>2025-07-13T07:18:09.000Z</time>
      </trkpt>
      <trkpt lat="53.052669" lon="-1.639139">
        <ele>194.226307</ele>
        <time>2025-07-13T07:19:11.000Z</time>
      </trkpt>
      <trkpt lat="53.052915" lon="-1.639304">
        <ele>194.471249</ele>
        <time>2025-07-13T07:19:14.000Z</time>
      </trkpt>
      <trkpt lat="53.053287" lon="-1.639628">
        <ele>194.88555</ele>
        <time>2025-07-13T07:19:19.000Z</time>
      </trkpt>
      <trkpt lat="53.053793" lon="-1.640206">
        <ele>195.473756</ele>
        <time>2025-07-13T07:19:26.000Z</time>
      </trkpt>
      <trkpt lat="53.054028" lon="-1.640556">
        <ele>195.813478</ele>
        <time>2025-07-13T07:19:30.000Z</time>
      </trkpt>
      <trkpt lat="53.054291" lon="-1.640983">
        <ele>196.527262</ele>
        <time>2025-07-13T07:19:34.000Z</time>
      </trkpt>
      <trkpt lat="53.054599" lon="-1.641619">
        <ele>197.496324</ele>
        <time>2025-07-13T07:19:39.000Z</time>
      </trkpt>
      <trkpt lat="53.05509" lon="-1.642902">
        <ele>199.305337</ele>
        <time>2025-07-13T07:19:49.000Z</time>
      </trkpt>
      <trkpt lat="53.055382" lon="-1.643439">
        <ele>200.395494</ele>
        <time>2025-07-13T07:19:54.000Z</time>
      </trkpt>
      <trkpt lat="53.055718" lon="-1.643875">
        <ele>201.479818</ele>
        <time>2025-07-13T07:19:59.000Z</time>
      </trkpt>
      <trkpt lat="53.055972" lon="-1.644114">
        <ele>202.178097</ele>
        <time>2025-07-13T07:20:02.000Z</time>
      </trkpt>
      <trkpt lat="53.056241" lon="-1.644285">
        <ele>202.90094</ele>
        <time>2025-07-13T07:20:05.000Z</time>
      </trkpt>
      <trkpt lat="53.056462" lon="-1.644375">
        <ele>203.479693</ele>
        <time>2025-07-13T07:20:08.000Z</time>
      </trkpt>
      <trkpt lat="53.0568" lon="-1.644492">
        <ele>204.276421</ele>
        <time>2025-07-13T07:20:12.000Z</time>
      </trkpt>
      <trkpt lat="53.057212" lon="-1.644472">
        <ele>205.121599</ele>
        <time>2025-07-13T07:20:17.000Z</time>
      </trkpt>
      <trkpt lat="53.058636" lon="-1.643947">
        <ele>208.575285</ele>
        <time>2025-07-13T07:20:33.000Z</time>
      </trkpt>
      <trkpt lat="53.059093" lon="-1.643897">
        <ele>210.186781</ele>
        <time>2025-07-13T07:20:38.000Z</time>
      </trkpt>
      <trkpt lat="53.059431" lon="-1.643959">
        <ele>211.391153</ele>
        <time>2025-07-13T07:20:42.000Z</time>
      </trkpt>
      <trkpt lat="53.059882" lon="-1.644145">
        <ele>213.100333</ele>
        <time>2025-07-13T07:20:47.000Z</time>
      </trkpt>
      <trkpt lat="53.060271" lon="-1.644383">
        <ele>215.083842</ele>
        <time>2025-07-13T07:20:52.000Z</time>
      </trkpt>
      <trkpt lat="53.060713" lon="-1.644843">
        <ele>218.581726</ele>
        <time>2025-07-13T07:20:58.000Z</time>
      </trkpt>
      <trkpt lat="53.060924" lon="-1.645129">
        <ele>220.396565</ele>
        <time>2025-07-13T07:21:01.000Z</time>
      </trkpt>
      <trkpt lat="53.06121" lon="-1.645555">
        <ele>223.002159</ele>
        <time>2025-07-13T07:21:05.000Z</time>
      </trkpt>
      <trkpt lat="53.06148" lon="-1.646252">
        <ele>226.427743</ele>
        <time>2025-07-13T07:21:11.000Z</time>
      </trkpt>
      <trkpt lat="53.061666" lon="-1.646889">
        <ele>229.244039</ele>
        <time>2025-07-13T07:21:16.000Z</time>
      </trkpt>
      <trkpt lat="53.061815" lon="-1.647664">
        <ele>232.573671</ele>
        <time>2025-07-13T07:21:21.000Z</time>
      </trkpt>
      <trkpt lat="53.062082" lon="-1.649334">
        <ele>238.359161</ele>
        <time>2025-07-13T07:21:33.000Z</time>
      </trkpt>
      <trkpt lat="53.062287" lon="-1.650431">
        <ele>238.247756</ele>
        <time>2025-07-13T07:21:41.000Z</time>
      </trkpt>
      <trkpt lat="53.062087" lon="-1.649329">
        <ele>238.136355</ele>
        <time>2025-07-13T07:21:49.000Z</time>
      </trkpt>
      <trkpt lat="53.061828" lon="-1.64765">
        <ele>232.615575</ele>
        <time>2025-07-13T07:22:01.000Z</time>
      </trkpt>
      <trkpt lat="53.061664" lon="-1.646891">
        <ele>229.237309</ele>
        <time>2025-07-13T07:22:06.000Z</time>
      </trkpt>
      <trkpt lat="53.061474" lon="-1.646257">
        <ele>226.379869</ele>
        <time>2025-07-13T07:22:11.000Z</time>
      </trkpt>
      <trkpt lat="53.0612" lon="-1.645565">
        <ele>222.977005</ele>
        <time>2025-07-13T07:22:17.000Z</time>
      </trkpt>
      <trkpt lat="53.060915" lon="-1.645117">
        <ele>220.403954</ele>
        <time>2025-07-13T07:22:21.000Z</time>
      </trkpt>
      <trkpt lat="53.060721" lon="-1.644847">
        <ele>218.61178</ele>
        <time>2025-07-13T07:22:24.000Z</time>
      </trkpt>
      <trkpt lat="53.060276" lon="-1.644382">
        <ele>215.157586</ele>
        <time>2025-07-13T07:22:30.000Z</time>
      </trkpt>
      <trkpt lat="53.059884" lon="-1.644143">
        <ele>213.018444</ele>
        <time>2025-07-13T07:22:35.000Z</time>
      </trkpt>
      <trkpt lat="53.059425" lon="-1.643963">
        <ele>211.359239</ele>
        <time>2025-07-13T07:22:40.000Z</time>
      </trkpt>
      <trkpt lat="53.059087" lon="-1.643908">
        <ele>210.190087</ele>
        <time>2025-07-13T07:22:44.000Z</time>
      </trkpt>
      <trkpt lat="53.05864" lon="-1.643955">
        <ele>208.625704</ele>
        <time>2025-07-13T07:22:49.000Z</time>
      </trkpt>
      <trkpt lat="53.057218" lon="-1.644468">
        <ele>205.106982</ele>
        <time>2025-07-13T07:23:05.000Z</time>
      </trkpt>
      <trkpt lat="53.056796" lon="-1.644477">
        <ele>204.258341</ele>
        <time>2025-07-13T07:23:10.000Z</time>
      </trkpt>
      <trkpt lat="53.056466" lon="-1.644382">
        <ele>203.486198</ele>
        <time>2025-07-13T07:23:14.000Z</time>
      </trkpt>
      <trkpt lat="53.056239" lon="-1.644298">
        <ele>202.908307</ele>
        <time>2025-07-13T07:23:17.000Z</time>
      </trkpt>
      <trkpt lat="53.055965" lon="-1.644118">
        <ele>202.186539</ele>
        <time>2025-07-13T07:23:20.000Z</time>
      </trkpt>
      <trkpt lat="53.055725" lon="-1.643878">
        <ele>201.48927</ele>
        <time>2025-07-13T07:23:23.000Z</time>
      </trkpt>
      <trkpt lat="53.055391" lon="-1.643434">
        <ele>200.406554</ele>
        <time>2025-07-13T07:23:28.000Z</time>
      </trkpt>
      <trkpt lat="53.055092" lon="-1.642885">
        <ele>199.314325</ele>
        <time>2025-07-13T07:23:33.000Z</time>
      </trkpt>
      <trkpt lat="53.054603" lon="-1.641615">
        <ele>197.494791</ele>
        <time>2025-07-13T07:23:43.000Z</time>
      </trkpt>
      <trkpt lat="53.054283" lon="-1.640986">
        <ele>196.536134</ele>
        <time>2025-07-13T07:23:49.000Z</time>
      </trkpt>
      <trkpt lat="53.054042" lon="-1.640553">
        <ele>195.830036</ele>
        <time>2025-07-13T07:23:53.000Z</time>
      </trkpt>
      <trkpt lat="53.053795" lon="-1.640198">
        <ele>195.445802</ele>
        <time>2025-07-13T07:23:57.000Z</time>
      </trkpt>
      <trkpt lat="53.05328" lon="-1.639637">
        <ele>194.895777</ele>
        <time>2025-07-13T07:24:04.000Z</time>
      </trkpt>
      <trkpt lat="53.052907" lon="-1.639293">
        <ele>194.50837</ele>
        <time>2025-07-13T07:24:09.000Z</time>
      </trkpt>
      <trkpt lat="53.052676" lon="-1.639144">
        <ele>194.279324</ele>
        <time>2025-07-13T07:24:12.000Z</time>
      </trkpt>
      <trkpt lat="53.047488" lon="-1.635806">
        <ele>199.249104</ele>
        <time>2025-07-13T07:25:14.000Z</time>
      </trkpt>
      <trkpt lat="53.046939" lon="-1.635339">
        <ele>201.337161</ele>
        <time>2025-07-13T07:25:21.000Z</time>
      </trkpt>
      <trkpt lat="53.046703" lon="-1.635109">
        <ele>202.384782</ele>
        <time>2025-07-13T07:25:24.000Z</time>
      </trkpt>
      <trkpt lat="53.046294" lon="-1.63455">
        <ele>204.440844</ele>
        <time>2025-07-13T07:25:30.000Z</time>
      </trkpt>
      <trkpt lat="53.04595" lon="-1.634209">
        <ele>205.958181</ele>
        <time>2025-07-13T07:25:34.000Z</time>
      </trkpt>
      <trkpt lat="53.045707" lon="-1.633975">
        <ele>206.873504</ele>
        <time>2025-07-13T07:25:37.000Z</time>
      </trkpt>
      <trkpt lat="53.045199" lon="-1.633621">
        <ele>208.442862</ele>
        <time>2025-07-13T07:25:43.000Z</time>
      </trkpt>
      <trkpt lat="53.044834" lon="-1.633318">
        <ele>209.588006</ele>
        <time>2025-07-13T07:25:48.000Z</time>
      </trkpt>
      <trkpt lat="53.044429" lon="-1.632914">
        <ele>210.919468</ele>
        <time>2025-07-13T07:25:53.000Z</time>
      </trkpt>
      <trkpt lat="53.04385" lon="-1.632241">
        <ele>210.297927</ele>
        <time>2025-07-13T07:26:01.000Z</time>
      </trkpt>
      <trkpt lat="53.042784" lon="-1.63097">
        <ele>207.482325</ele>
        <time>2025-07-13T07:26:16.000Z</time>
      </trkpt>
      <trkpt lat="53.042572" lon="-1.630718">
        <ele>206.785792</ele>
        <time>2025-07-13T07:26:19.000Z</time>
      </trkpt>
      <trkpt lat="53.042206" lon="-1.630286">
        <ele>205.529717</ele>
        <time>2025-07-13T07:26:24.000Z</time>
      </trkpt>
      <trkpt lat="53.041905" lon="-1.629929">
        <ele>204.538111</ele>
        <time>2025-07-13T07:26:28.000Z</time>
      </trkpt>
      <trkpt lat="53.040963" lon="-1.628846">
        <ele>202.933684</ele>
        <time>2025-07-13T07:26:41.000Z</time>
      </trkpt>
      <trkpt lat="53.040694" lon="-1.628605">
        <ele>203.070364</ele>
        <time>2025-07-13T07:26:44.000Z</time>
      </trkpt>
      <trkpt lat="53.040411" lon="-1.628416">
        <ele>203.206562</ele>
        <time>2025-07-13T07:26:47.000Z</time>
      </trkpt>
      <trkpt lat="53.040014" lon="-1.628298">
        <ele>203.385102</ele>
        <time>2025-07-13T07:26:51.000Z</time>
      </trkpt>
      <trkpt lat="53.039666" lon="-1.628271">
        <ele>203.590395</ele>
        <time>2025-07-13T07:26:55.000Z</time>
      </trkpt>
      <trkpt lat="53.039071" lon="-1.628437">
        <ele>205.065188</ele>
        <time>2025-07-13T07:27:02.000Z</time>
      </trkpt>
      <trkpt lat="53.038621" lon="-1.628681">
        <ele>206.171619</ele>
        <time>2025-07-13T07:27:07.000Z</time>
      </trkpt>
      <trkpt lat="53.038263" lon="-1.62906">
        <ele>207.209586</ele>
        <time>2025-07-13T07:27:12.000Z</time>
      </trkpt>
      <trkpt lat="53.036749" lon="-1.631125">
        <ele>214.50006</ele>
        <time>2025-07-13T07:27:34.000Z</time>
      </trkpt>
      <trkpt lat="53.035593" lon="-1.632924">
        <ele>222.699064</ele>
        <time>2025-07-13T07:27:52.000Z</time>
      </trkpt>
      <trkpt lat="53.035576" lon="-1.632944">
        <ele>222.845895</ele>
        <time>2025-07-13T07:27:52.000Z</time>
      </trkpt>
      <trkpt lat="53.035483" lon="-1.633074">
        <ele>223.437541</ele>
        <time>2025-07-13T07:27:53.000Z</time>
      </trkpt>
      <trkpt lat="53.034954" lon="-1.633715">
        <ele>226.213825</ele>
        <time>2025-07-13T07:28:00.000Z</time>
      </trkpt>
      <trkpt lat="53.033389" lon="-1.635426">
        <ele>231.019292</ele>
        <time>2025-07-13T07:28:21.000Z</time>
      </trkpt>
      <trkpt lat="53.033167" lon="-1.635681">
        <ele>230.949365</ele>
        <time>2025-07-13T07:28:24.000Z</time>
      </trkpt>
      <trkpt lat="53.033392" lon="-1.63542">
        <ele>230.879444</ele>
        <time>2025-07-13T07:28:27.000Z</time>
      </trkpt>
      <trkpt lat="53.034962" lon="-1.633717">
        <ele>226.132419</ele>
        <time>2025-07-13T07:28:48.000Z</time>
      </trkpt>
      <trkpt lat="53.035488" lon="-1.633063">
        <ele>223.485943</ele>
        <time>2025-07-13T07:28:55.000Z</time>
      </trkpt>
      <trkpt lat="53.035585" lon="-1.632949">
        <ele>222.898265</ele>
        <time>2025-07-13T07:28:56.000Z</time>
      </trkpt>
      <trkpt lat="53.035602" lon="-1.632915">
        <ele>222.752415</ele>
        <time>2025-07-13T07:28:56.000Z</time>
      </trkpt>
      <trkpt lat="53.036747" lon="-1.631124">
        <ele>214.470188</ele>
        <time>2025-07-13T07:29:13.000Z</time>
      </trkpt>
      <trkpt lat="53.038255" lon="-1.629068">
        <ele>207.090881</ele>
        <time>2025-07-13T07:29:35.000Z</time>
      </trkpt>
      <trkpt lat="53.038625" lon="-1.62869">
        <ele>206.114911</ele>
        <time>2025-07-13T07:29:40.000Z</time>
      </trkpt>
      <trkpt lat="53.039071" lon="-1.628426">
        <ele>205.07455</ele>
        <time>2025-07-13T07:29:45.000Z</time>
      </trkpt>
      <trkpt lat="53.039672" lon="-1.628276">
        <ele>203.687821</ele>
        <time>2025-07-13T07:29:52.000Z</time>
      </trkpt>
      <trkpt lat="53.040017" lon="-1.628307">
        <ele>203.205992</ele>
        <time>2025-07-13T07:29:56.000Z</time>
      </trkpt>
      <trkpt lat="53.040398" lon="-1.628423">
        <ele>203.149639</ele>
        <time>2025-07-13T07:30:00.000Z</time>
      </trkpt>
      <trkpt lat="53.040683" lon="-1.62861">
        <ele>203.106638</ele>
        <time>2025-07-13T07:30:03.000Z</time>
      </trkpt>
      <trkpt lat="53.040956" lon="-1.628854">
        <ele>203.063488</ele>
        <time>2025-07-13T07:30:06.000Z</time>
      </trkpt>
      <trkpt lat="53.041907" lon="-1.629928">
        <ele>204.412866</ele>
        <time>2025-07-13T07:30:19.000Z</time>
      </trkpt>
      <trkpt lat="53.042198" lon="-1.630273">
        <ele>205.484226</ele>
        <time>2025-07-13T07:30:23.000Z</time>
      </trkpt>
      <trkpt lat="53.04257" lon="-1.630728">
        <ele>206.841323</ele>
        <time>2025-07-13T07:30:28.000Z</time>
      </trkpt>
      <trkpt lat="53.042791" lon="-1.630967">
        <ele>207.593858</ele>
        <time>2025-07-13T07:30:31.000Z</time>
      </trkpt>
      <trkpt lat="53.04385" lon="-1.632243">
        <ele>210.079192</ele>
        <time>2025-07-13T07:30:46.000Z</time>
      </trkpt>
      <trkpt lat="53.044434" lon="-1.632912">
        <ele>211.268974</ele>
        <time>2025-07-13T07:30:54.000Z</time>
      </trkpt>
      <trkpt lat="53.044841" lon="-1.633311">
        <ele>209.789062</ele>
        <time>2025-07-13T07:30:59.000Z</time>
      </trkpt>
      <trkpt lat="53.045189" lon="-1.633624">
        <ele>208.513244</ele>
        <time>2025-07-13T07:31:03.000Z</time>
      </trkpt>
      <trkpt lat="53.045697" lon="-1.633989">
        <ele>206.764821</ele>
        <time>2025-07-13T07:31:09.000Z</time>
      </trkpt>
      <trkpt lat="53.045947" lon="-1.634209">
        <ele>205.843891</ele>
        <time>2025-07-13T07:31:12.000Z</time>
      </trkpt>
      <trkpt lat="53.046278" lon="-1.634556">
        <ele>204.439505</ele>
        <time>2025-07-13T07:31:16.000Z</time>
      </trkpt>
      <trkpt lat="53.046716" lon="-1.635103">
        <ele>202.4761</ele>
        <time>2025-07-13T07:31:22.000Z</time>
      </trkpt>
      <trkpt lat="53.046933" lon="-1.635339">
        <ele>201.475708</ele>
        <time>2025-07-13T07:31:25.000Z</time>
      </trkpt>
      <trkpt lat="53.047479" lon="-1.635811">
        <ele>199.243791</ele>
        <time>2025-07-13T07:31:32.000Z</time>
      </trkpt>
      <trkpt lat="53.052665" lon="-1.639146">
        <ele>194.115676</ele>
        <time>2025-07-13T07:32:34.000Z</time>
      </trkpt>
      <trkpt lat="53.052907" lon="-1.639293">
        <ele>194.389841</ele>
        <time>2025-07-13T07:32:37.000Z</time>
      </trkpt>
      <trkpt lat="53.05328" lon="-1.639627">
        <ele>194.853569</ele>
        <time>2025-07-13T07:32:42.000Z</time>
      </trkpt>
      <trkpt lat="53.053784" lon="-1.64021">
        <ele>195.511936</ele>
        <time>2025-07-13T07:32:49.000Z</time>
      </trkpt>
      <trkpt lat="53.054036" lon="-1.640545">
        <ele>195.864441</ele>
        <time>2025-07-13T07:32:53.000Z</time>
      </trkpt>
      <trkpt lat="53.054287" lon="-1.640974">
        <ele>196.506781</ele>
        <time>2025-07-13T07:32:57.000Z</time>
      </trkpt>
      <trkpt lat="53.054602" lon="-1.641615">
        <ele>197.496163</ele>
        <time>2025-07-13T07:33:03.000Z</time>
      </trkpt>
      <trkpt lat="53.055096" lon="-1.642895">
        <ele>199.343057</ele>
        <time>2025-07-13T07:33:13.000Z</time>
      </trkpt>
      <trkpt lat="53.05539" lon="-1.643442">
        <ele>200.375874</ele>
        <time>2025-07-13T07:33:18.000Z</time>
      </trkpt>
      <trkpt lat="53.055731" lon="-1.643886">
        <ele>201.460732</ele>
        <time>2025-07-13T07:33:23.000Z</time>
      </trkpt>
      <trkpt lat="53.055969" lon="-1.644103">
        <ele>202.159352</ele>
        <time>2025-07-13T07:33:26.000Z</time>
      </trkpt>
      <trkpt lat="53.056234" lon="-1.644282">
        <ele>202.882548</ele>
        <time>2025-07-13T07:33:29.000Z</time>
      </trkpt>
      <trkpt lat="53.056452" lon="-1.644371">
        <ele>203.461563</ele>
        <time>2025-07-13T07:33:31.000Z</time>
      </trkpt>
      <trkpt lat="53.05681" lon="-1.644478">
        <ele>204.308933</ele>
        <time>2025-07-13T07:33:35.000Z</time>
      </trkpt>
      <trkpt lat="53.057211" lon="-1.644476">
        <ele>205.150657</ele>
        <time>2025-07-13T07:33:39.000Z</time>
      </trkpt>
      <trkpt lat="53.05864" lon="-1.643943">
        <ele>208.452036</ele>
        <time>2025-07-13T07:33:55.000Z</time>
      </trkpt>
      <trkpt lat="53.059085" lon="-1.643897">
        <ele>210.157327</ele>
        <time>2025-07-13T07:34:00.000Z</time>
      </trkpt>
      <trkpt lat="53.059415" lon="-1.643967">
        <ele>211.43178</ele>
        <time>2025-07-13T07:34:04.000Z</time>
      </trkpt>
      <trkpt lat="53.059892" lon="-1.644141">
        <ele>213.240427</ele>
        <time>2025-07-13T07:34:09.000Z</time>
      </trkpt>
      <trkpt lat="53.060281" lon="-1.644394">
        <ele>214.933928</ele>
        <time>2025-07-13T07:34:14.000Z</time>
      </trkpt>
      <trkpt lat="53.060721" lon="-1.644843">
        <ele>218.510711</ele>
        <time>2025-07-13T07:34:20.000Z</time>
      </trkpt>
      <trkpt lat="53.060916" lon="-1.645121">
        <ele>220.36646</ele>
        <time>2025-07-13T07:34:23.000Z</time>
      </trkpt>
      <trkpt lat="53.061205" lon="-1.645549">
        <ele>223.030824</ele>
        <time>2025-07-13T07:34:27.000Z</time>
      </trkpt>
      <trkpt lat="53.061481" lon="-1.646268">
        <ele>226.532503</ele>
        <time>2025-07-13T07:34:33.000Z</time>
      </trkpt>
      <trkpt lat="53.061654" lon="-1.646886">
        <ele>229.283545</ele>
        <time>2025-07-13T07:34:38.000Z</time>
      </trkpt>
      <trkpt lat="53.061824" lon="-1.647651">
        <ele>232.503856</ele>
        <time>2025-07-13T07:34:43.000Z</time>
      </trkpt>
      <trkpt lat="53.062082" lon="-1.64932">
        <ele>238.844659</ele>
        <time>2025-07-13T07:34:55.000Z</time>
      </trkpt>
      <trkpt lat="53.062282" lon="-1.650419">
        <ele>238.312703</ele>
        <time>2025-07-13T07:35:03.000Z</time>
      </trkpt>
      <trkpt lat="53.062093" lon="-1.649322">
        <ele>237.780711</ele>
        <time>2025-07-13T07:35:11.000Z</time>
      </trkpt>
      <trkpt lat="53.061817" lon="-1.647664">
        <ele>232.711043</ele>
        <time>2025-07-13T07:35:23.000Z</time>
      </trkpt>
      <trkpt lat="53.06165" lon="-1.646891">
        <ele>229.25078</ele>
        <time>2025-07-13T07:35:28.000Z</time>
      </trkpt>
      <trkpt lat="53.061489" lon="-1.646267">
        <ele>226.323993</ele>
        <time>2025-07-13T07:35:33.000Z</time>
      </trkpt>
      <trkpt lat="53.061209" lon="-1.645552">
        <ele>222.909086</ele>
        <time>2025-07-13T07:35:39.000Z</time>
      </trkpt>
      <trkpt lat="53.060924" lon="-1.64512">
        <ele>220.401287</ele>
        <time>2025-07-13T07:35:43.000Z</time>
      </trkpt>
      <trkpt lat="53.060722" lon="-1.644842">
        <ele>218.654559</ele>
        <time>2025-07-13T07:35:46.000Z</time>
      </trkpt>
      <trkpt lat="53.060282" lon="-1.644379">
        <ele>215.287956</ele>
        <time>2025-07-13T07:35:52.000Z</time>
      </trkpt>
      <trkpt lat="53.059899" lon="-1.64413">
        <ele>212.844815</ele>
        <time>2025-07-13T07:35:57.000Z</time>
      </trkpt>
      <trkpt lat="53.059428" lon="-1.643951">
        <ele>211.278512</ele>
        <time>2025-07-13T07:36:02.000Z</time>
      </trkpt>
      <trkpt lat="53.059094" lon="-1.643895">
        <ele>210.174836</ele>
        <time>2025-07-13T07:36:06.000Z</time>
      </trkpt>
      <trkpt lat="53.058632" lon="-1.643942">
        <ele>208.698033</ele>
        <time>2025-07-13T07:36:11.000Z</time>
      </trkpt>
      <trkpt lat="53.057204" lon="-1.644479">
        <ele>205.082997</ele>
        <time>2025-07-13T07:36:27.000Z</time>
      </trkpt>
      <trkpt lat="53.0568" lon="-1.644479">
        <ele>204.224871</ele>
        <time>2025-07-13T07:36:31.000Z</time>
      </trkpt>
      <trkpt lat="53.056459" lon="-1.644376">
        <ele>203.479315</ele>
        <time>2025-07-13T07:36:35.000Z</time>
      </trkpt>
      <trkpt lat="53.056225" lon="-1.644298">
        <ele>202.917786</ele>
        <time>2025-07-13T07:36:38.000Z</time>
      </trkpt>
      <trkpt lat="53.055966" lon="-1.644112">
        <ele>202.199458</ele>
        <time>2025-07-13T07:36:41.000Z</time>
      </trkpt>
      <trkpt lat="53.055721" lon="-1.643881">
        <ele>201.505518</ele>
        <time>2025-07-13T07:36:44.000Z</time>
      </trkpt>
      <trkpt lat="53.055386" lon="-1.643431">
        <ele>200.427964</ele>
        <time>2025-07-13T07:36:49.000Z</time>
      </trkpt>
      <trkpt lat="53.055089" lon="-1.64289">
        <ele>199.340935</ele>
        <time>2025-07-13T07:36:54.000Z</time>
      </trkpt>
      <trkpt lat="53.054595" lon="-1.641613">
        <ele>197.488764</ele>
        <time>2025-07-13T07:37:04.000Z</time>
      </trkpt>
      <trkpt lat="53.054284" lon="-1.640985">
        <ele>196.549997</ele>
        <time>2025-07-13T07:37:09.000Z</time>
      </trkpt>
      <trkpt lat="53.054032" lon="-1.640555">
        <ele>195.85854</ele>
        <time>2025-07-13T07:37:13.000Z</time>
      </trkpt>
      <trkpt lat="53.053783" lon="-1.640209">
        <ele>195.375059</ele>
        <time>2025-07-13T07:37:17.000Z</time>
      </trkpt>
      <trkpt lat="53.053281" lon="-1.639639">
        <ele>194.901097</ele>
        <time>2025-07-13T07:37:24.000Z</time>
      </trkpt>
      <trkpt lat="53.052912" lon="-1.639305">
        <ele>194.567279</ele>
        <time>2025-07-13T07:37:29.000Z</time>
      </trkpt>
      <trkpt lat="53.052674" lon="-1.639134">
        <ele>194.369916</ele>
        <time>2025-07-13T07:37:32.000Z</time>
      </trkpt>
      <trkpt lat="53.047481" lon="-1.635809">
        <ele>199.384405</ele>
        <time>2025-07-13T07:38:34.000Z</time>
      </trkpt>
      <trkpt lat="53.046933" lon="-1.635353">
        <ele>201.237351</ele>
        <time>2025-07-13T07:38:41.000Z</time>
      </trkpt>
      <trkpt lat="53.046718" lon="-1.635103">
        <ele>202.309357</ele>
        <time>2025-07-13T07:38:44.000Z</time>
      </trkpt>
      <trkpt lat="53.046286" lon="-1.634558">
        <ele>204.413258</ele>
        <time>2025-07-13T07:38:50.000Z</time>
      </trkpt>
      <trkpt lat="53.045957" lon="-1.634214">
        <ele>205.9659</ele>
        <time>2025-07-13T07:38:54.000Z</time>
      </trkpt>
      <trkpt lat="53.045707" lon="-1.633973">
        <ele>206.995832</ele>
        <time>2025-07-13T07:38:57.000Z</time>
      </trkpt>
      <trkpt lat="53.045194" lon="-1.63362">
        <ele>208.430263</ele>
        <time>2025-07-13T07:39:03.000Z</time>
      </trkpt>
      <trkpt lat="53.044844" lon="-1.633306">
        <ele>209.476949</ele>
        <time>2025-07-13T07:39:07.000Z</time>
      </trkpt>
      <trkpt lat="53.044428" lon="-1.632914">
        <ele>210.693915</ele>
        <time>2025-07-13T07:39:12.000Z</time>
      </trkpt>
      <trkpt lat="53.043848" lon="-1.632233">
        <ele>210.47784</ele>
        <time>2025-07-13T07:39:20.000Z</time>
      </trkpt>
      <trkpt lat="53.042778" lon="-1.630968">
        <ele>207.355682</ele>
        <time>2025-07-13T07:39:35.000Z</time>
      </trkpt>
      <trkpt lat="53.042581" lon="-1.63072">
        <ele>206.713558</ele>
        <time>2025-07-13T07:39:38.000Z</time>
      </trkpt>
      <trkpt lat="53.042192" lon="-1.63027">
        <ele>205.532965</ele>
        <time>2025-07-13T07:39:43.000Z</time>
      </trkpt>
      <trkpt lat="53.041894" lon="-1.629933">
        <ele>204.600931</ele>
        <time>2025-07-13T07:39:47.000Z</time>
      </trkpt>
      <trkpt lat="53.040966" lon="-1.628842">
        <ele>202.821957</ele>
        <time>2025-07-13T07:40:00.000Z</time>
      </trkpt>
      <trkpt lat="53.04069" lon="-1.628605">
        <ele>203.015655</ele>
        <time>2025-07-13T07:40:03.000Z</time>
      </trkpt>
      <trkpt lat="53.040396" lon="-1.628429">
        <ele>203.208682</ele>
        <time>2025-07-13T07:40:06.000Z</time>
      </trkpt>
      <trkpt lat="53.040018" lon="-1.628306">
        <ele>203.461719</ele>
        <time>2025-07-13T07:40:10.000Z</time>
      </trkpt>
      <trkpt lat="53.039667" lon="-1.628267">
        <ele>203.676458</ele>
        <time>2025-07-13T07:40:14.000Z</time>
      </trkpt>
      <trkpt lat="53.039056" lon="-1.628431">
        <ele>205.044006</ele>
        <time>2025-07-13T07:40:21.000Z</time>
      </trkpt>
      <trkpt lat="53.038632" lon="-1.628691">
        <ele>206.194709</ele>
        <time>2025-07-13T07:40:26.000Z</time>
      </trkpt>
      <trkpt lat="53.03826" lon="-1.629067">
        <ele>207.274215</ele>
        <time>2025-07-13T07:40:31.000Z</time>
      </trkpt>
      <trkpt lat="53.036744" lon="-1.631123">
        <ele>214.583345</ele>
        <time>2025-07-13T07:40:53.000Z</time>
      </trkpt>
      <trkpt lat="53.03559" lon="-1.632923">
        <ele>222.643831</ele>
        <time>2025-07-13T07:41:11.000Z</time>
      </trkpt>
      <trkpt lat="53.03558" lon="-1.632961">
        <ele>222.790658</ele>
        <time>2025-07-13T07:41:11.000Z</time>
      </trkpt>
      <trkpt lat="53.035486" lon="-1.633066">
        <ele>223.382336</ele>
        <time>2025-07-13T07:41:12.000Z</time>
      </trkpt>
      <trkpt lat="53.034958" lon="-1.63372">
        <ele>226.286149</ele>
        <time>2025-07-13T07:41:19.000Z</time>
      </trkpt>
      <trkpt lat="53.033377" lon="-1.635417">
        <ele>231.196755</ele>
        <time>2025-07-13T07:41:40.000Z</time>
      </trkpt>
      <trkpt lat="53.033176" lon="-1.635676">
        <ele>231.042254</ele>
        <time>2025-07-13T07:41:43.000Z</time>
      </trkpt>
      <trkpt lat="53.033166" lon="-1.635687">
        <ele>231.039248</ele>
        <time>2025-07-13T07:41:43.000Z</time>
      </trkpt>
      <trkpt lat="53.033168" lon="-1.635675">
        <ele>231.037636</ele>
        <time>2025-07-13T07:41:43.000Z</time>
      </trkpt>
      <trkpt lat="53.033166" lon="-1.635684">
        <ele>231.036031</ele>
        <time>2025-07-13T07:41:43.000Z</time>
      </trkpt>
      <trkpt lat="53.033182" lon="-1.635681">
        <ele>231.03302</ele>
        <time>2025-07-13T07:41:43.000Z</time>
      </trkpt>
      <trkpt lat="53.033374" lon="-1.635428">
        <ele>230.87852</ele>
        <time>2025-07-13T07:41:46.000Z</time>
      </trkpt>
      <trkpt lat="53.034948" lon="-1.633712">
        <ele>226.101355</ele>
        <time>2025-07-13T07:42:07.000Z</time>
      </trkpt>
      <trkpt lat="53.035492" lon="-1.633059">
        <ele>223.383609</ele>
        <time>2025-07-13T07:42:14.000Z</time>
      </trkpt>
      <trkpt lat="53.035575" lon="-1.632948">
        <ele>222.90354</ele>
        <time>2025-07-13T07:42:15.000Z</time>
      </trkpt>
      <trkpt lat="53.035598" lon="-1.632931">
        <ele>222.75877</ele>
        <time>2025-07-13T07:42:15.000Z</time>
      </trkpt>
      <trkpt lat="53.036735" lon="-1.631123">
        <ele>214.538235</ele>
        <time>2025-07-13T07:42:33.000Z</time>
      </trkpt>
      <trkpt lat="53.038253" lon="-1.629058">
        <ele>207.041097</ele>
        <time>2025-07-13T07:42:55.000Z</time>
      </trkpt>
      <trkpt lat="53.038634" lon="-1.628683">
        <ele>206.07218</ele>
        <time>2025-07-13T07:43:00.000Z</time>
      </trkpt>
      <trkpt lat="53.039068" lon="-1.628437">
        <ele>205.069734</ele>
        <time>2025-07-13T07:43:05.000Z</time>
      </trkpt>
      <trkpt lat="53.039677" lon="-1.628281">
        <ele>203.733543</ele>
        <time>2025-07-13T07:43:12.000Z</time>
      </trkpt>
      <trkpt lat="53.040005" lon="-1.628304">
        <ele>203.068315</ele>
        <time>2025-07-13T07:43:16.000Z</time>
      </trkpt>
      <trkpt lat="53.04041" lon="-1.628426">
        <ele>203.085973</ele>
        <time>2025-07-13T07:43:21.000Z</time>
      </trkpt>
      <trkpt lat="53.04068" lon="-1.628598">
        <ele>203.099443</ele>
        <time>2025-07-13T07:43:24.000Z</time>
      </trkpt>
      <trkpt lat="53.040963" lon="-1.628837">
        <ele>203.112965</ele>
        <time>2025-07-13T07:43:28.000Z</time>
      </trkpt>
      <trkpt lat="53.04191" lon="-1.629927">
        <ele>204.331301</ele>
        <time>2025-07-13T07:43:41.000Z</time>
      </trkpt>
      <trkpt lat="53.042203" lon="-1.630268">
        <ele>205.441345</ele>
        <time>2025-07-13T07:43:45.000Z</time>
      </trkpt>
      <trkpt lat="53.042581" lon="-1.630727">
        <ele>206.847445</ele>
        <time>2025-07-13T07:43:50.000Z</time>
      </trkpt>
      <trkpt lat="53.042777" lon="-1.630967">
        <ele>207.627161</ele>
        <time>2025-07-13T07:43:53.000Z</time>
      </trkpt>
      <trkpt lat="53.043855" lon="-1.632235">
        <ele>209.993724</ele>
        <time>2025-07-13T07:44:08.000Z</time>
      </trkpt>
      <trkpt lat="53.044444" lon="-1.632906">
        <ele>210.983502</ele>
        <time>2025-07-13T07:44:16.000Z</time>
      </trkpt>
      <trkpt lat="53.044832" lon="-1.633318">
        <ele>209.910393</ele>
        <time>2025-07-13T07:44:21.000Z</time>
      </trkpt>
      <trkpt lat="53.045199" lon="-1.633613">
        <ele>208.570992</ele>
        <time>2025-07-13T07:44:26.000Z</time>
      </trkpt>
      <trkpt lat="53.045707" lon="-1.63398">
        <ele>206.735403</ele>
        <time>2025-07-13T07:44:32.000Z</time>
      </trkpt>
      <trkpt lat="53.045957" lon="-1.634207">
        <ele>205.768588</ele>
        <time>2025-07-13T07:44:35.000Z</time>
      </trkpt>
      <trkpt lat="53.046296" lon="-1.634566">
        <ele>204.408877</ele>
        <time>2025-07-13T07:44:39.000Z</time>
      </trkpt>
      <trkpt lat="53.046715" lon="-1.635109">
        <ele>202.508533</ele>
        <time>2025-07-13T07:44:45.000Z</time>
      </trkpt>
      <trkpt lat="53.046939" lon="-1.635345">
        <ele>201.540267</ele>
        <time>2025-07-13T07:44:48.000Z</time>
      </trkpt>
      <trkpt lat="53.047478" lon="-1.635815">
        <ele>199.380021</ele>
        <time>2025-07-13T07:44:55.000Z</time>
      </trkpt>
      <trkpt lat="53.052679" lon="-1.639144">
        <ele>194.031656</ele>
        <time>2025-07-13T07:45:57.000Z</time>
      </trkpt>
      <trkpt lat="53.052914" lon="-1.639298">
        <ele>194.310337</ele>
        <time>2025-07-13T07:46:00.000Z</time>
      </trkpt>
      <trkpt lat="53.05328" lon="-1.639625">
        <ele>194.81439</ele>
        <time>2025-07-13T07:46:05.000Z</time>
      </trkpt>
      <trkpt lat="53.053784" lon="-1.640204">
        <ele>195.530023</ele>
        <time>2025-07-13T07:46:12.000Z</time>
      </trkpt>
      <trkpt lat="53.054029" lon="-1.640545">
        <ele>195.913155</ele>
        <time>2025-07-13T07:46:16.000Z</time>
      </trkpt>
      <trkpt lat="53.054294" lon="-1.640982">
        <ele>196.484956</ele>
        <time>2025-07-13T07:46:20.000Z</time>
      </trkpt>
      <trkpt lat="53.054597" lon="-1.641622">
        <ele>197.492292</ele>
        <time>2025-07-13T07:46:25.000Z</time>
      </trkpt>
      <trkpt lat="53.055093" lon="-1.64289">
        <ele>199.372752</ele>
        <time>2025-07-13T07:46:35.000Z</time>
      </trkpt>
      <trkpt lat="53.055383" lon="-1.643441">
        <ele>200.362263</ele>
        <time>2025-07-13T07:46:40.000Z</time>
      </trkpt>
      <trkpt lat="53.055717" lon="-1.643869">
        <ele>201.444841</ele>
        <time>2025-07-13T07:46:45.000Z</time>
      </trkpt>
      <trkpt lat="53.055973" lon="-1.644107">
        <ele>202.142021</ele>
        <time>2025-07-13T07:46:48.000Z</time>
      </trkpt>
      <trkpt lat="53.056227" lon="-1.644285">
        <ele>202.863699</ele>
        <time>2025-07-13T07:46:51.000Z</time>
      </trkpt>
      <trkpt lat="53.056455" lon="-1.64438">
        <ele>203.441515</ele>
        <time>2025-07-13T07:46:54.000Z</time>
      </trkpt>
      <trkpt lat="53.056803" lon="-1.64448">
        <ele>204.328883</ele>
        <time>2025-07-13T07:46:58.000Z</time>
      </trkpt>
      <trkpt lat="53.057211" lon="-1.644461">
        <ele>205.174641</ele>
        <time>2025-07-13T07:47:03.000Z</time>
      </trkpt>
      <trkpt lat="53.058639" lon="-1.64394">
        <ele>208.315595</ele>
        <time>2025-07-13T07:47:19.000Z</time>
      </trkpt>
      <trkpt lat="53.059084" lon="-1.643905">
        <ele>210.106232</ele>
        <time>2025-07-13T07:47:24.000Z</time>
      </trkpt>
      <trkpt lat="53.059425" lon="-1.643966">
        <ele>211.444469</ele>
        <time>2025-07-13T07:47:28.000Z</time>
      </trkpt>
      <trkpt lat="53.059896" lon="-1.644131">
        <ele>213.343638</ele>
        <time>2025-07-13T07:47:33.000Z</time>
      </trkpt>
      <trkpt lat="53.060278" lon="-1.644388">
        <ele>214.980223</ele>
        <time>2025-07-13T07:47:38.000Z</time>
      </trkpt>
      <trkpt lat="53.060709" lon="-1.644833">
        <ele>218.437086</ele>
        <time>2025-07-13T07:47:44.000Z</time>
      </trkpt>
      <trkpt lat="53.060926" lon="-1.645128">
        <ele>220.323638</ele>
        <time>2025-07-13T07:47:47.000Z</time>
      </trkpt>
      <trkpt lat="53.061206" lon="-1.645565">
        <ele>223.032199</ele>
        <time>2025-07-13T07:47:51.000Z</time>
      </trkpt>
      <trkpt lat="53.061484" lon="-1.646268">
        <ele>226.591969</ele>
        <time>2025-07-13T07:47:57.000Z</time>
      </trkpt>
      <trkpt lat="53.061664" lon="-1.646881">
        <ele>229.347374</ele>
        <time>2025-07-13T07:48:02.000Z</time>
      </trkpt>
      <trkpt lat="53.06182" lon="-1.64766">
        <ele>232.459908</ele>
        <time>2025-07-13T07:48:07.000Z</time>
      </trkpt>
      <trkpt lat="53.062094" lon="-1.649337">
        <ele>239.07005</ele>
        <time>2025-07-13T07:48:19.000Z</time>
      </trkpt>
      <trkpt lat="53.062276" lon="-1.650418">
        <ele>238.43892</ele>
        <time>2025-07-13T07:48:27.000Z</time>
      </trkpt>
      <trkpt lat="53.062095" lon="-1.649328">
        <ele>237.548976</ele>
        <time>2025-07-13T07:48:35.000Z</time>
      </trkpt>
      <trkpt lat="53.061829" lon="-1.64766">
        <ele>232.804776</ele>
        <time>2025-07-13T07:48:47.000Z</time>
      </trkpt>
      <trkpt lat="53.061648" lon="-1.646888">
        <ele>229.284998</ele>
        <time>2025-07-13T07:48:53.000Z</time>
      </trkpt>
      <trkpt lat="53.06148" lon="-1.64626">
        <ele>226.307833</ele>
        <time>2025-07-13T07:48:58.000Z</time>
      </trkpt>
      <trkpt lat="53.061208" lon="-1.645563">
        <ele>222.827666</ele>
        <time>2025-07-13T07:49:04.000Z</time>
      </trkpt>
      <trkpt lat="53.060918" lon="-1.645121">
        <ele>220.379682</ele>
        <time>2025-07-13T07:49:08.000Z</time>
      </trkpt>
      <trkpt lat="53.060705" lon="-1.644844">
        <ele>218.674604</ele>
        <time>2025-07-13T07:49:11.000Z</time>
      </trkpt>
      <trkpt lat="53.060265" lon="-1.644383">
        <ele>215.388272</ele>
        <time>2025-07-13T07:49:17.000Z</time>
      </trkpt>
      <trkpt lat="53.05989" lon="-1.644133">
        <ele>212.769056</ele>
        <time>2025-07-13T07:49:21.000Z</time>
      </trkpt>
      <trkpt lat="53.059424" lon="-1.643964">
        <ele>211.190335</ele>
        <time>2025-07-13T07:49:26.000Z</time>
      </trkpt>
      <trkpt lat="53.059093" lon="-1.643906">
        <ele>210.140471</ele>
        <time>2025-07-13T07:49:30.000Z</time>
      </trkpt>
      <trkpt lat="53.058638" lon="-1.643944">
        <ele>208.735698</ele>
        <time>2025-07-13T07:49:35.000Z</time>
      </trkpt>
      <trkpt lat="53.05721" lon="-1.644476">
        <ele>205.067735</ele>
        <time>2025-07-13T07:49:51.000Z</time>
      </trkpt>
      <trkpt lat="53.056806" lon="-1.644474">
        <ele>204.198899</ele>
        <time>2025-07-13T07:49:55.000Z</time>
      </trkpt>
      <trkpt lat="53.056461" lon="-1.644384">
        <ele>203.444015</ele>
        <time>2025-07-13T07:49:59.000Z</time>
      </trkpt>
      <trkpt lat="53.056236" lon="-1.64428">
        <ele>202.919878</ele>
        <time>2025-07-13T07:50:02.000Z</time>
      </trkpt>
      <trkpt lat="53.055962" lon="-1.644106">
        <ele>202.205938</ele>
        <time>2025-07-13T07:50:05.000Z</time>
      </trkpt>
      <trkpt lat="53.055726" lon="-1.643886">
        <ele>201.516232</ele>
        <time>2025-07-13T07:50:08.000Z</time>
      </trkpt>
      <trkpt lat="53.055386" lon="-1.643432">
        <ele>200.445252</ele>
        <time>2025-07-13T07:50:13.000Z</time>
      </trkpt>
      <trkpt lat="53.055091" lon="-1.642895">
        <ele>199.364856</ele>
        <time>2025-07-13T07:50:18.000Z</time>
      </trkpt>
      <trkpt lat="53.054589" lon="-1.641608">
        <ele>197.480115</ele>
        <time>2025-07-13T07:50:28.000Z</time>
      </trkpt>
      <trkpt lat="53.054284" lon="-1.640991">
        <ele>196.55856</ele>
        <time>2025-07-13T07:50:33.000Z</time>
      </trkpt>
      <trkpt lat="53.054031" lon="-1.640555">
        <ele>195.879778</ele>
        <time>2025-07-13T07:50:37.000Z</time>
      </trkpt>
      <trkpt lat="53.053786" lon="-1.64021">
        <ele>195.294087</ele>
        <time>2025-07-13T07:50:41.000Z</time>
      </trkpt>
      <trkpt lat="53.053292" lon="-1.639627">
        <ele>194.889086</ele>
        <time>2025-07-13T07:50:48.000Z</time>
      </trkpt>
      <trkpt lat="53.052915" lon="-1.639295">
        <ele>194.603817</ele>
        <time>2025-07-13T07:50:53.000Z</time>
      </trkpt>
      <trkpt lat="53.05268" lon="-1.639143">
        <ele>194.43518</ele>
        <time>2025-07-13T07:50:56.000Z</time>
      </trkpt>
      <trkpt lat="53.047477" lon="-1.635817">
        <ele>199.49785</ele>
        <time>2025-07-13T07:51:58.000Z</time>
      </trkpt>
      <trkpt lat="53.046948" lon="-1.635348">
        <ele>201.151383</ele>
        <time>2025-07-13T07:52:05.000Z</time>
      </trkpt>
      <trkpt lat="53.046714" lon="-1.635106">
        <ele>202.240235</ele>
        <time>2025-07-13T07:52:08.000Z</time>
      </trkpt>
      <trkpt lat="53.046295" lon="-1.634552">
        <ele>204.377225</ele>
        <time>2025-07-13T07:52:14.000Z</time>
      </trkpt>
      <trkpt lat="53.04595" lon="-1.634206">
        <ele>205.95425</ele>
        <time>2025-07-13T07:52:18.000Z</time>
      </trkpt>
      <trkpt lat="53.045703" lon="-1.633976">
        <ele>207.114563</ele>
        <time>2025-07-13T07:52:21.000Z</time>
      </trkpt>
      <trkpt lat="53.045193" lon="-1.633615">
        <ele>208.448917</ele>
        <time>2025-07-13T07:52:27.000Z</time>
      </trkpt>
      <trkpt lat="53.044836" lon="-1.633308">
        <ele>209.402056</ele>
        <time>2025-07-13T07:52:31.000Z</time>
      </trkpt>
      <trkpt lat="53.044441" lon="-1.632912">
        <ele>210.510262</ele>
        <time>2025-07-13T07:52:36.000Z</time>
      </trkpt>
      <trkpt lat="53.043861" lon="-1.632241">
        <ele>210.647591</ele>
        <time>2025-07-13T07:52:44.000Z</time>
      </trkpt>
      <trkpt lat="53.042794" lon="-1.630964">
        <ele>207.269233</ele>
        <time>2025-07-13T07:52:59.000Z</time>
      </trkpt>
      <trkpt lat="53.042568" lon="-1.630726">
        <ele>206.623003</ele>
        <time>2025-07-13T07:53:02.000Z</time>
      </trkpt>
      <trkpt lat="53.042199" lon="-1.630282">
        <ele>205.513794</ele>
        <time>2025-07-13T07:53:07.000Z</time>
      </trkpt>
      <trkpt lat="53.04191" lon="-1.629929">
        <ele>204.638145</ele>
        <time>2025-07-13T07:53:11.000Z</time>
      </trkpt>
      <trkpt lat="53.040954" lon="-1.628842">
        <ele>202.711823</ele>
        <time>2025-07-13T07:53:24.000Z</time>
      </trkpt>
      <trkpt lat="53.040691" lon="-1.628606">
        <ele>202.952056</ele>
        <time>2025-07-13T07:53:27.000Z</time>
      </trkpt>
      <trkpt lat="53.040401" lon="-1.62842">
        <ele>203.191456</ele>
        <time>2025-07-13T07:53:30.000Z</time>
      </trkpt>
      <trkpt lat="53.040005" lon="-1.628305">
        <ele>203.50526</ele>
        <time>2025-07-13T07:53:34.000Z</time>
      </trkpt>
      <trkpt lat="53.039662" lon="-1.628283">
        <ele>203.771564</ele>
        <time>2025-07-13T07:53:38.000Z</time>
      </trkpt>
      <trkpt lat="53.039056" lon="-1.628428">
        <ele>205.015152</ele>
        <time>2025-07-13T07:53:45.000Z</time>
      </trkpt>
      <trkpt lat="53.038625" lon="-1.628678">
        <ele>206.204945</ele>
        <time>2025-07-13T07:53:50.000Z</time>
      </trkpt>
      <trkpt lat="53.038265" lon="-1.629065">
        <ele>207.321097</ele>
        <time>2025-07-13T07:53:55.000Z</time>
      </trkpt>
      <trkpt lat="53.036751" lon="-1.631136">
        <ele>214.647488</ele>
        <time>2025-07-13T07:54:17.000Z</time>
      </trkpt>
      <trkpt lat="53.035593" lon="-1.632917">
        <ele>222.58875</ele>
        <time>2025-07-13T07:54:35.000Z</time>
      </trkpt>
      <trkpt lat="53.035582" lon="-1.632944">
        <ele>222.735178</ele>
        <time>2025-07-13T07:54:35.000Z</time>
      </trkpt>
      <trkpt lat="53.035494" lon="-1.633068">
        <ele>223.325226</ele>
        <time>2025-07-13T07:54:36.000Z</time>
      </trkpt>
      <trkpt lat="53.034959" lon="-1.633713">
        <ele>226.361827</ele>
        <time>2025-07-13T07:54:43.000Z</time>
      </trkpt>
      <trkpt lat="53.033386" lon="-1.635416">
        <ele>231.380624</ele>
        <time>2025-07-13T07:55:04.000Z</time>
      </trkpt>
      <trkpt lat="53.033181" lon="-1.635679">
        <ele>231.145787</ele>
        <time>2025-07-13T07:55:07.000Z</time>
      </trkpt>
      <trkpt lat="53.033175" lon="-1.635682">
        <ele>231.141224</ele>
        <time>2025-07-13T07:55:07.000Z</time>
      </trkpt>
      <trkpt lat="53.033172" lon="-1.635673">
        <ele>231.136666</ele>
        <time>2025-07-13T07:55:07.000Z</time>
      </trkpt>
      <trkpt lat="53.033389" lon="-1.635419">
        <ele>230.901819</ele>
        <time>2025-07-13T07:55:10.000Z</time>
      </trkpt>
      <trkpt lat="53.034961" lon="-1.633728">
        <ele>226.081147</ele>
        <time>2025-07-13T07:55:31.000Z</time>
      </trkpt>
      <trkpt lat="53.035487" lon="-1.633069">
        <ele>223.274479</ele>
        <time>2025-07-13T07:55:38.000Z</time>
      </trkpt>
      <trkpt lat="53.035571" lon="-1.632953">
        <ele>222.802377</ele>
        <time>2025-07-13T07:55:39.000Z</time>
      </trkpt>
      <trkpt lat="53.035602" lon="-1.632921">
        <ele>222.685212</ele>
        <time>2025-07-13T07:55:39.000Z</time>
      </trkpt>
      <trkpt lat="53.03674" lon="-1.631121">
        <ele>214.608607</ele>
        <time>2025-07-13T07:55:56.000Z</time>
      </trkpt>
      <trkpt lat="53.038262" lon="-1.629059">
        <ele>207.113081</ele>
        <time>2025-07-13T07:56:18.000Z</time>
      </trkpt>
      <trkpt lat="53.038627" lon="-1.628687">
        <ele>206.019761</ele>
        <time>2025-07-13T07:56:23.000Z</time>
      </trkpt>
      <trkpt lat="53.039057" lon="-1.628431">
        <ele>205.057198</ele>
        <time>2025-07-13T07:56:28.000Z</time>
      </trkpt>
      <trkpt lat="53.039675" lon="-1.628267">
        <ele>203.774165</ele>
        <time>2025-07-13T07:56:35.000Z</time>
      </trkpt>
      <trkpt lat="53.040016" lon="-1.628302">
        <ele>203.06672</ele>
        <time>2025-07-13T07:56:39.000Z</time>
      </trkpt>
      <trkpt lat="53.040394" lon="-1.628429">
        <ele>202.991578</ele>
        <time>2025-07-13T07:56:43.000Z</time>
      </trkpt>
      <trkpt lat="53.040679" lon="-1.628599">
        <ele>203.067165</ele>
        <time>2025-07-13T07:56:46.000Z</time>
      </trkpt>
      <trkpt lat="53.040955" lon="-1.62884">
        <ele>203.143033</ele>
        <time>2025-07-13T07:56:49.000Z</time>
      </trkpt>
      <trkpt lat="53.041907" lon="-1.629923">
        <ele>204.243625</ele>
        <time>2025-07-13T07:57:02.000Z</time>
      </trkpt>
      <trkpt lat="53.042191" lon="-1.630275">
        <ele>205.388358</ele>
        <time>2025-07-13T07:57:06.000Z</time>
      </trkpt>
      <trkpt lat="53.042577" lon="-1.630728">
        <ele>206.838408</ele>
        <time>2025-07-13T07:57:11.000Z</time>
      </trkpt>
      <trkpt lat="53.042792" lon="-1.63098">
        <ele>207.642477</ele>
        <time>2025-07-13T07:57:14.000Z</time>
      </trkpt>
      <trkpt lat="53.043857" lon="-1.632225">
        <ele>209.942351</ele>
        <time>2025-07-13T07:57:28.000Z</time>
      </trkpt>
      <trkpt lat="53.044433" lon="-1.632911">
        <ele>210.705596</ele>
        <time>2025-07-13T07:57:36.000Z</time>
      </trkpt>
      <trkpt lat="53.044842" lon="-1.633313">
        <ele>210.034528</ele>
        <time>2025-07-13T07:57:41.000Z</time>
      </trkpt>
      <trkpt lat="53.045193" lon="-1.633617">
        <ele>208.637209</ele>
        <time>2025-07-13T07:57:45.000Z</time>
      </trkpt>
      <trkpt lat="53.04569" lon="-1.633982">
        <ele>206.722278</ele>
        <time>2025-07-13T07:57:51.000Z</time>
      </trkpt>
      <trkpt lat="53.045962" lon="-1.634212">
        <ele>205.713654</ele>
        <time>2025-07-13T07:57:54.000Z</time>
      </trkpt>
      <trkpt lat="53.046283" lon="-1.634553">
        <ele>204.348411</ele>
        <time>2025-07-13T07:57:58.000Z</time>
      </trkpt>
      <trkpt lat="53.046706" lon="-1.635104">
        <ele>202.522046</ele>
        <time>2025-07-13T07:58:04.000Z</time>
      </trkpt>
      <trkpt lat="53.046943" lon="-1.635353">
        <ele>201.591488</ele>
        <time>2025-07-13T07:58:07.000Z</time>
      </trkpt>
      <trkpt lat="53.047481" lon="-1.635812">
        <ele>199.515337</ele>
        <time>2025-07-13T07:58:14.000Z</time>
      </trkpt>
      <trkpt lat="53.052673" lon="-1.639146">
        <ele>194.115079</ele>
        <time>2025-07-13T07:59:16.000Z</time>
      </trkpt>
      <trkpt lat="53.052907" lon="-1.639306">
        <ele>194.219766</ele>
        <time>2025-07-13T07:59:19.000Z</time>
      </trkpt>
      <trkpt lat="53.053293" lon="-1.639638">
        <ele>194.763677</ele>
        <time>2025-07-13T07:59:24.000Z</time>
      </trkpt>
      <trkpt lat="53.053781" lon="-1.640204">
        <ele>195.535881</ele>
        <time>2025-07-13T07:59:31.000Z</time>
      </trkpt>
      <trkpt lat="53.054043" lon="-1.640555">
        <ele>195.949324</ele>
        <time>2025-07-13T07:59:35.000Z</time>
      </trkpt>
      <trkpt lat="53.054287" lon="-1.640979">
        <ele>196.457627</ele>
        <time>2025-07-13T07:59:39.000Z</time>
      </trkpt>
      <trkpt lat="53.054605" lon="-1.641623">
        <ele>197.484213</ele>
        <time>2025-07-13T07:59:45.000Z</time>
      </trkpt>
      <trkpt lat="53.055096" lon="-1.642893">
        <ele>199.400563</ele>
        <time>2025-07-13T07:59:55.000Z</time>
      </trkpt>
      <trkpt lat="53.055381" lon="-1.643436">
        <ele>200.353224</ele>
        <time>2025-07-13T08:00:00.000Z</time>
      </trkpt>
      <trkpt lat="53.055719" lon="-1.643878">
        <ele>201.430787</ele>
        <time>2025-07-13T08:00:05.000Z</time>
      </trkpt>
      <trkpt lat="53.055973" lon="-1.644118">
        <ele>202.124734</ele>
        <time>2025-07-13T08:00:08.000Z</time>
      </trkpt>
      <trkpt lat="53.05624" lon="-1.644296">
        <ele>202.843067</ele>
        <time>2025-07-13T08:00:11.000Z</time>
      </trkpt>
      <trkpt lat="53.056458" lon="-1.644371">
        <ele>203.418202</ele>
        <time>2025-07-13T08:00:13.000Z</time>
      </trkpt>
      <trkpt lat="53.056804" lon="-1.644487">
        <ele>204.301464</ele>
        <time>2025-07-13T08:00:17.000Z</time>
      </trkpt>
      <trkpt lat="53.057216" lon="-1.644476">
        <ele>205.196828</ele>
        <time>2025-07-13T08:00:22.000Z</time>
      </trkpt>
      <trkpt lat="53.058646" lon="-1.643944">
        <ele>208.239634</ele>
        <time>2025-07-13T08:00:38.000Z</time>
      </trkpt>
      <trkpt lat="53.059082" lon="-1.643907">
        <ele>210.026964</ele>
        <time>2025-07-13T08:00:43.000Z</time>
      </trkpt>
      <trkpt lat="53.059424" lon="-1.643954">
        <ele>211.433407</ele>
        <time>2025-07-13T08:00:47.000Z</time>
      </trkpt>
      <trkpt lat="53.059894" lon="-1.644131">
        <ele>213.429352</ele>
        <time>2025-07-13T08:00:52.000Z</time>
      </trkpt>
      <trkpt lat="53.060278" lon="-1.644379">
        <ele>215.149332</ele>
        <time>2025-07-13T08:00:57.000Z</time>
      </trkpt>
      <trkpt lat="53.060705" lon="-1.644846">
        <ele>218.349164</ele>
        <time>2025-07-13T08:01:03.000Z</time>
      </trkpt>
      <trkpt lat="53.060927" lon="-1.64513">
        <ele>220.263928</ele>
        <time>2025-07-13T08:01:06.000Z</time>
      </trkpt>
      <trkpt lat="53.061204" lon="-1.64555">
        <ele>223.012979</ele>
        <time>2025-07-13T08:01:10.000Z</time>
      </trkpt>
      <trkpt lat="53.061482" lon="-1.646257">
        <ele>226.62595</ele>
        <time>2025-07-13T08:01:16.000Z</time>
      </trkpt>
      <trkpt lat="53.061664" lon="-1.646888">
        <ele>229.45169</ele>
        <time>2025-07-13T08:01:21.000Z</time>
      </trkpt>
      <trkpt lat="53.061812" lon="-1.647648">
        <ele>232.438438</ele>
        <time>2025-07-13T08:01:26.000Z</time>
      </trkpt>
      <trkpt lat="53.062091" lon="-1.649319">
        <ele>238.781377</ele>
        <time>2025-07-13T08:01:38.000Z</time>
      </trkpt>
      <trkpt lat="53.062276" lon="-1.650432">
        <ele>238.639066</ele>
        <time>2025-07-13T08:01:46.000Z</time>
      </trkpt>
      <trkpt lat="53.062098" lon="-1.649323">
        <ele>237.379166</ele>
        <time>2025-07-13T08:01:54.000Z</time>
      </trkpt>
      <trkpt lat="53.061827" lon="-1.64766">
        <ele>232.907173</ele>
        <time>2025-07-13T08:02:06.000Z</time>
      </trkpt>
      <trkpt lat="53.061661" lon="-1.646881">
        <ele>229.337123</ele>
        <time>2025-07-13T08:02:12.000Z</time>
      </trkpt>
      <trkpt lat="53.061487" lon="-1.646256">
        <ele>226.317444</ele>
        <time>2025-07-13T08:02:17.000Z</time>
      </trkpt>
      <trkpt lat="53.061196" lon="-1.645559">
        <ele>222.719045</ele>
        <time>2025-07-13T08:02:23.000Z</time>
      </trkpt>
      <trkpt lat="53.060928" lon="-1.645118">
        <ele>220.336482</ele>
        <time>2025-07-13T08:02:27.000Z</time>
      </trkpt>
      <trkpt lat="53.060707" lon="-1.644833">
        <ele>218.676994</ele>
        <time>2025-07-13T08:02:30.000Z</time>
      </trkpt>
      <trkpt lat="53.060267" lon="-1.644396">
        <ele>215.478509</ele>
        <time>2025-07-13T08:02:36.000Z</time>
      </trkpt>
      <trkpt lat="53.059892" lon="-1.644133">
        <ele>212.929303</ele>
        <time>2025-07-13T08:02:41.000Z</time>
      </trkpt>
      <trkpt lat="53.059431" lon="-1.643969">
        <ele>211.081108</ele>
        <time>2025-07-13T08:02:46.000Z</time>
      </trkpt>
      <trkpt lat="53.059084" lon="-1.643903">
        <ele>210.084502</ele>
        <time>2025-07-13T08:02:50.000Z</time>
      </trkpt>
      <trkpt lat="53.058638" lon="-1.643938">
        <ele>208.750987</ele>
        <time>2025-07-13T08:02:55.000Z</time>
      </trkpt>
      <trkpt lat="53.057213" lon="-1.644476">
        <ele>205.058239</ele>
        <time>2025-07-13T08:03:11.000Z</time>
      </trkpt>
      <trkpt lat="53.056806" lon="-1.644489">
        <ele>204.176476</ele>
        <time>2025-07-13T08:03:16.000Z</time>
      </trkpt>
      <trkpt lat="53.056464" lon="-1.644374">
        <ele>203.410376</ele>
        <time>2025-07-13T08:03:20.000Z</time>
      </trkpt>
      <trkpt lat="53.056226" lon="-1.644286">
        <ele>202.911525</ele>
        <time>2025-07-13T08:03:23.000Z</time>
      </trkpt>
      <trkpt lat="53.055972" lon="-1.644112">
        <ele>202.207328</ele>
        <time>2025-07-13T08:03:26.000Z</time>
      </trkpt>
      <trkpt lat="53.055731" lon="-1.643872">
        <ele>201.523283</ele>
        <time>2025-07-13T08:03:29.000Z</time>
      </trkpt>
      <trkpt lat="53.05538" lon="-1.643433">
        <ele>200.461055</ele>
        <time>2025-07-13T08:03:34.000Z</time>
      </trkpt>
      <trkpt lat="53.055102" lon="-1.642894">
        <ele>199.38951</ele>
        <time>2025-07-13T08:03:39.000Z</time>
      </trkpt>
      <trkpt lat="53.054593" lon="-1.64161">
        <ele>197.46767</ele>
        <time>2025-07-13T08:03:49.000Z</time>
      </trkpt>
      <trkpt lat="53.054295" lon="-1.640983">
        <ele>196.564146</ele>
        <time>2025-07-13T08:03:54.000Z</time>
      </trkpt>
      <trkpt lat="53.054036" lon="-1.64055">
        <ele>195.898633</ele>
        <time>2025-07-13T08:03:58.000Z</time>
      </trkpt>
      <trkpt lat="53.053791" lon="-1.640195">
        <ele>195.298823</ele>
        <time>2025-07-13T08:04:02.000Z</time>
      </trkpt>
      <trkpt lat="53.053278" lon="-1.639638">
        <ele>194.858165</ele>
        <time>2025-07-13T08:04:09.000Z</time>
      </trkpt>
      <trkpt lat="53.052913" lon="-1.639299">
        <ele>194.626062</ele>
        <time>2025-07-13T08:04:14.000Z</time>
      </trkpt>
      <trkpt lat="53.052664" lon="-1.639146">
        <ele>194.488857</ele>
        <time>2025-07-13T08:04:17.000Z</time>
      </trkpt>
      <trkpt lat="53.047479" lon="-1.635807">
        <ele>199.609185</ele>
        <time>2025-07-13T08:05:19.000Z</time>
      </trkpt>
      <trkpt lat="53.046937" lon="-1.635342">
        <ele>201.066616</ele>
        <time>2025-07-13T08:05:26.000Z</time>
      </trkpt>
      <trkpt lat="53.046704" lon="-1.635108">
        <ele>202.168685</ele>
        <time>2025-07-13T08:05:29.000Z</time>
      </trkpt>
      <trkpt lat="53.046282" lon="-1.634565">
        <ele>204.331589</ele>
        <time>2025-07-13T08:05:35.000Z</time>
      </trkpt>
      <trkpt lat="53.045953" lon="-1.6342">
        <ele>205.92777</ele>
        <time>2025-07-13T08:05:39.000Z</time>
      </trkpt>
      <trkpt lat="53.045701" lon="-1.633972">
        <ele>207.102163</ele>
        <time>2025-07-13T08:05:42.000Z</time>
      </trkpt>
      <trkpt lat="53.045185" lon="-1.633621">
        <ele>208.504201</ele>
        <time>2025-07-13T08:05:48.000Z</time>
      </trkpt>
      <trkpt lat="53.044828" lon="-1.633313">
        <ele>209.351325</ele>
        <time>2025-07-13T08:05:52.000Z</time>
      </trkpt>
      <trkpt lat="53.044429" lon="-1.632905">
        <ele>210.336245</ele>
        <time>2025-07-13T08:05:57.000Z</time>
      </trkpt>
      <trkpt lat="53.04385" lon="-1.632233">
        <ele>210.83344</ele>
        <time>2025-07-13T08:06:05.000Z</time>
      </trkpt>
      <trkpt lat="53.042784" lon="-1.630977">
        <ele>207.219739</ele>
        <time>2025-07-13T08:06:20.000Z</time>
      </trkpt>
      <trkpt lat="53.042579" lon="-1.630718">
        <ele>206.512871</ele>
        <time>2025-07-13T08:06:23.000Z</time>
      </trkpt>
      <trkpt lat="53.042191" lon="-1.630277">
        <ele>205.470004</ele>
        <time>2025-07-13T08:06:28.000Z</time>
      </trkpt>
      <trkpt lat="53.041901" lon="-1.629921">
        <ele>204.657201</ele>
        <time>2025-07-13T08:06:32.000Z</time>
      </trkpt>
      <trkpt lat="53.04096" lon="-1.628837">
        <ele>202.584296</ele>
        <time>2025-07-13T08:06:45.000Z</time>
      </trkpt>
      <trkpt lat="53.040679" lon="-1.628608">
        <ele>202.870494</ele>
        <time>2025-07-13T08:06:48.000Z</time>
      </trkpt>
      <trkpt lat="53.040402" lon="-1.628433">
        <ele>203.155664</ele>
        <time>2025-07-13T08:06:51.000Z</time>
      </trkpt>
      <trkpt lat="53.040014" lon="-1.628309">
        <ele>203.529494</ele>
        <time>2025-07-13T08:06:55.000Z</time>
      </trkpt>
      <trkpt lat="53.039674" lon="-1.628268">
        <ele>203.846725</ele>
        <time>2025-07-13T08:06:59.000Z</time>
      </trkpt>
      <trkpt lat="53.03906" lon="-1.628431">
        <ele>204.972272</ele>
        <time>2025-07-13T08:07:06.000Z</time>
      </trkpt>
      <trkpt lat="53.03863" lon="-1.628683">
        <ele>206.20416</ele>
        <time>2025-07-13T08:07:11.000Z</time>
      </trkpt>
      <trkpt lat="53.038254" lon="-1.629064">
        <ele>207.359828</ele>
        <time>2025-07-13T08:07:16.000Z</time>
      </trkpt>
      <trkpt lat="53.036741" lon="-1.63112">
        <ele>214.706332</ele>
        <time>2025-07-13T08:07:38.000Z</time>
      </trkpt>
      <trkpt lat="53.035604" lon="-1.63293">
        <ele>222.52848</ele>
        <time>2025-07-13T08:07:56.000Z</time>
      </trkpt>
      <trkpt lat="53.035569" lon="-1.632943">
        <ele>222.674082</ele>
        <time>2025-07-13T08:07:56.000Z</time>
      </trkpt>
      <trkpt lat="53.035483" lon="-1.633075">
        <ele>223.26074</ele>
        <time>2025-07-13T08:07:57.000Z</time>
      </trkpt>
      <trkpt lat="53.034954" lon="-1.633719">
        <ele>226.45662</ele>
        <time>2025-07-13T08:08:04.000Z</time>
      </trkpt>
      <trkpt lat="53.033381" lon="-1.635425">
        <ele>231.634779</ele>
        <time>2025-07-13T08:08:25.000Z</time>
      </trkpt>
      <trkpt lat="53.033182" lon="-1.635669">
        <ele>231.32504</ele>
        <time>2025-07-13T08:08:28.000Z</time>
      </trkpt>
      <trkpt lat="53.033171" lon="-1.635677">
        <ele>231.319036</ele>
        <time>2025-07-13T08:08:28.000Z</time>
      </trkpt>
      <trkpt lat="53.033163" lon="-1.635685">
        <ele>231.315798</ele>
        <time>2025-07-13T08:08:28.000Z</time>
      </trkpt>
      <trkpt lat="53.033171" lon="-1.635676">
        <ele>231.311593</ele>
        <time>2025-07-13T08:08:28.000Z</time>
      </trkpt>
      <trkpt lat="53.033174" lon="-1.63568">
        <ele>231.307396</ele>
        <time>2025-07-13T08:08:28.000Z</time>
      </trkpt>
      <trkpt lat="53.033175" lon="-1.635677">
        <ele>231.304167</ele>
        <time>2025-07-13T08:08:28.000Z</time>
      </trkpt>
      <trkpt lat="53.033179" lon="-1.635673">
        <ele>231.298157</ele>
        <time>2025-07-13T08:08:28.000Z</time>
      </trkpt>
      <trkpt lat="53.033387" lon="-1.635422">
        <ele>230.98841</ele>
        <time>2025-07-13T08:08:31.000Z</time>
      </trkpt>
      <trkpt lat="53.034951" lon="-1.633724">
        <ele>226.079326</ele>
        <time>2025-07-13T08:08:52.000Z</time>
      </trkpt>
      <trkpt lat="53.035486" lon="-1.633071">
        <ele>223.191782</ele>
        <time>2025-07-13T08:08:59.000Z</time>
      </trkpt>
      <trkpt lat="53.035571" lon="-1.632953">
        <ele>222.706087</ele>
        <time>2025-07-13T08:09:00.000Z</time>
      </trkpt>
      <trkpt lat="53.035604" lon="-1.632921">
        <ele>222.585551</ele>
        <time>2025-07-13T08:09:00.000Z</time>
      </trkpt>
      <trkpt lat="53.036751" lon="-1.631136">
        <ele>214.666274</ele>
        <time>2025-07-13T08:09:17.000Z</time>
      </trkpt>
      <trkpt lat="53.038252" lon="-1.629063">
        <ele>207.170181</ele>
        <time>2025-07-13T08:09:39.000Z</time>
      </trkpt>
      <trkpt lat="53.038631" lon="-1.628675">
        <ele>205.96755</ele>
        <time>2025-07-13T08:09:44.000Z</time>
      </trkpt>
      <trkpt lat="53.03906" lon="-1.628441">
        <ele>205.040469</ele>
        <time>2025-07-13T08:09:49.000Z</time>
      </trkpt>
      <trkpt lat="53.039676" lon="-1.628269">
        <ele>203.80471</ele>
        <time>2025-07-13T08:09:56.000Z</time>
      </trkpt>
      <trkpt lat="53.040001" lon="-1.628307">
        <ele>203.123353</ele>
        <time>2025-07-13T08:10:00.000Z</time>
      </trkpt>
      <trkpt lat="53.040398" lon="-1.628433">
        <ele>202.883409</ele>
        <time>2025-07-13T08:10:04.000Z</time>
      </trkpt>
      <trkpt lat="53.040693" lon="-1.628601">
        <ele>203.015696</ele>
        <time>2025-07-13T08:10:07.000Z</time>
      </trkpt>
      <trkpt lat="53.040961" lon="-1.628842">
        <ele>203.148469</ele>
        <time>2025-07-13T08:10:10.000Z</time>
      </trkpt>
      <trkpt lat="53.041898" lon="-1.629922">
        <ele>204.16618</ele>
        <time>2025-07-13T08:10:23.000Z</time>
      </trkpt>
      <trkpt lat="53.042206" lon="-1.630273">
        <ele>205.334465</ele>
        <time>2025-07-13T08:10:27.000Z</time>
      </trkpt>
      <trkpt lat="53.042581" lon="-1.630717">
        <ele>206.814315</ele>
        <time>2025-07-13T08:10:32.000Z</time>
      </trkpt>
      <trkpt lat="53.042776" lon="-1.630981">
        <ele>207.634943</ele>
        <time>2025-07-13T08:10:35.000Z</time>
      </trkpt>
      <trkpt lat="53.043854" lon="-1.632239">
        <ele>209.93438</ele>
        <time>2025-07-13T08:10:50.000Z</time>
      </trkpt>
      <trkpt lat="53.04443" lon="-1.632902">
        <ele>210.492594</ele>
        <time>2025-07-13T08:10:58.000Z</time>
      </trkpt>
      <trkpt lat="53.044842" lon="-1.633316">
        <ele>210.145859</ele>
        <time>2025-07-13T08:11:03.000Z</time>
      </trkpt>
      <trkpt lat="53.045192" lon="-1.633613">
        <ele>208.702925</ele>
        <time>2025-07-13T08:11:07.000Z</time>
      </trkpt>
      <trkpt lat="53.045701" lon="-1.633975">
        <ele>206.725475</ele>
        <time>2025-07-13T08:11:13.000Z</time>
      </trkpt>
      <trkpt lat="53.045956" lon="-1.634203">
        <ele>205.683933</ele>
        <time>2025-07-13T08:11:16.000Z</time>
      </trkpt>
      <trkpt lat="53.04628" lon="-1.634554">
        <ele>204.268914</ele>
        <time>2025-07-13T08:11:20.000Z</time>
      </trkpt>
      <trkpt lat="53.046703" lon="-1.635093">
        <ele>202.513414</ele>
        <time>2025-07-13T08:11:26.000Z</time>
      </trkpt>
      <trkpt lat="53.046944" lon="-1.635352">
        <ele>201.61893</ele>
        <time>2025-07-13T08:11:29.000Z</time>
      </trkpt>
      <trkpt lat="53.047482" lon="-1.635813">
        <ele>199.623334</ele>
        <time>2025-07-13T08:11:36.000Z</time>
      </trkpt>
      <trkpt lat="53.05267" lon="-1.639138">
        <ele>194.188317</ele>
        <time>2025-07-13T08:12:38.000Z</time>
      </trkpt>
      <trkpt lat="53.052904" lon="-1.639305">
        <ele>194.135391</ele>
        <time>2025-07-13T08:12:41.000Z</time>
      </trkpt>
      <trkpt lat="53.053292" lon="-1.639629">
        <ele>194.71231</ele>
        <time>2025-07-13T08:12:46.000Z</time>
      </trkpt>
      <trkpt lat="53.053796" lon="-1.64021">
        <ele>195.531391</ele>
        <time>2025-07-13T08:12:53.000Z</time>
      </trkpt>
      <trkpt lat="53.054029" lon="-1.640557">
        <ele>195.969918</ele>
        <time>2025-07-13T08:12:56.000Z</time>
      </trkpt>
      <trkpt lat="53.054298" lon="-1.640974">
        <ele>196.456496</ele>
        <time>2025-07-13T08:13:00.000Z</time>
      </trkpt>
      <trkpt lat="53.054604" lon="-1.641608">
        <ele>197.473364</ele>
        <time>2025-07-13T08:13:05.000Z</time>
      </trkpt>
      <trkpt lat="53.055098" lon="-1.642884">
        <ele>199.421775</ele>
        <time>2025-07-13T08:13:15.000Z</time>
      </trkpt>
      <trkpt lat="53.055384" lon="-1.643433">
        <ele>200.351007</ele>
        <time>2025-07-13T08:13:20.000Z</time>
      </trkpt>
      <trkpt lat="53.055726" lon="-1.643873">
        <ele>201.422046</ele>
        <time>2025-07-13T08:13:25.000Z</time>
      </trkpt>
      <trkpt lat="53.05597" lon="-1.644105">
        <ele>202.111804</ele>
        <time>2025-07-13T08:13:28.000Z</time>
      </trkpt>
      <trkpt lat="53.056235" lon="-1.644296">
        <ele>202.825782</ele>
        <time>2025-07-13T08:13:31.000Z</time>
      </trkpt>
      <trkpt lat="53.056463" lon="-1.644375">
        <ele>203.397449</ele>
        <time>2025-07-13T08:13:34.000Z</time>
      </trkpt>
      <trkpt lat="53.056813" lon="-1.644477">
        <ele>204.275364</ele>
        <time>2025-07-13T08:13:38.000Z</time>
      </trkpt>
      <trkpt lat="53.057214" lon="-1.644476">
        <ele>205.211149</ele>
        <time>2025-07-13T08:13:42.000Z</time>
      </trkpt>
      <trkpt lat="53.05863" lon="-1.643956">
        <ele>208.286042</ele>
        <time>2025-07-13T08:13:58.000Z</time>
      </trkpt>
      <trkpt lat="53.059086" lon="-1.643895">
        <ele>209.934847</ele>
        <time>2025-07-13T08:14:03.000Z</time>
      </trkpt>
      <trkpt lat="53.059419" lon="-1.643957">
        <ele>211.402164</ele>
        <time>2025-07-13T08:14:07.000Z</time>
      </trkpt>
      <trkpt lat="53.059899" lon="-1.644134">
        <ele>213.484538</ele>
        <time>2025-07-13T08:14:12.000Z</time>
      </trkpt>
      <trkpt lat="53.060273" lon="-1.644383">
        <ele>215.278981</ele>
        <time>2025-07-13T08:14:16.000Z</time>
      </trkpt>
      <trkpt lat="53.060719" lon="-1.644843">
        <ele>218.26599</ele>
        <time>2025-07-13T08:14:22.000Z</time>
      </trkpt>
      <trkpt lat="53.060922" lon="-1.645128">
        <ele>220.20219</ele>
        <time>2025-07-13T08:14:25.000Z</time>
      </trkpt>
      <trkpt lat="53.061201" lon="-1.645549">
        <ele>222.982003</ele>
        <time>2025-07-13T08:14:29.000Z</time>
      </trkpt>
      <trkpt lat="53.061474" lon="-1.646267">
        <ele>226.635452</ele>
        <time>2025-07-13T08:14:35.000Z</time>
      </trkpt>
      <trkpt lat="53.061658" lon="-1.646895">
        <ele>229.582223</ele>
        <time>2025-07-13T08:14:40.000Z</time>
      </trkpt>
      <trkpt lat="53.061829" lon="-1.647651">
        <ele>232.447163</ele>
        <time>2025-07-13T08:14:45.000Z</time>
      </trkpt>
      <trkpt lat="53.062096" lon="-1.649331">
        <ele>238.531469</ele>
        <time>2025-07-13T08:14:57.000Z</time>
      </trkpt>
      <trkpt lat="53.062276" lon="-1.650418">
        <ele>238.870884</ele>
        <time>2025-07-13T08:15:05.000Z</time>
      </trkpt>
      <trkpt lat="53.062089" lon="-1.649327">
        <ele>237.289869</ele>
        <time>2025-07-13T08:15:13.000Z</time>
      </trkpt>
      <trkpt lat="53.061821" lon="-1.647648">
        <ele>235.401394275</ele>
        <time>2025-07-13T08:15:25.000Z</time>
      </trkpt>
      <trkpt lat="53.061652" lon="-1.646886">
        <ele>234.518432253</ele>
        <time>2025-07-13T08:15:30.000Z</time>
      </trkpt>
      <trkpt lat="53.061475" lon="-1.646264">
        <ele>233.770294132</ele>
        <time>2025-07-13T08:15:35.000Z</time>
      </trkpt>
      <trkpt lat="53.0612" lon="-1.645564">
        <ele>232.861164159</ele>
        <time>2025-07-13T08:15:41.000Z</time>
      </trkpt>
      <trkpt lat="53.060917" lon="-1.645119">
        <ele>232.15683127</ele>
        <time>2025-07-13T08:15:45.000Z</time>
      </trkpt>
    </trkseg>
  </trk>
</gpx>

<!--
Performance optimized by W3 Total Cache. Learn more: https://www.boldgrid.com/w3-total-cache/?utm_source=w3tc&utm_medium=footer_comment&utm_campaign=free_plugin

Page Caching using Disk: Enhanced{w3tc_pagecache_reject_reason} 

Served from: www.aquabike.world @ 2026-05-10 17:55:12 by W3 Total Cache
-->